Time;durP1;ratioP1;P1;durP2;ratioP2;P2;SDS_P1;SDS_P2;PMS_P1;PMS_P2;Temp;Humidity;BMP_temperature;BMP_pressure;BME280_temperature;BME280_humidity;BME280_pressure;Samples;Min_cycle;Max_cycle;Signal;HPM_P1;HPM_P2
2022/10/12 00:02:16;;;;;;;8.37;4.73;;;;;;;5.17;96.33;102119.94;5033386;28;20443;-70
2022/10/12 00:04:43;;;;;;;12.20;5.63;;;;;;;5.16;96.74;102114.81;5028316;28;20463;-70
2022/10/12 00:07:09;;;;;;;13.30;5.53;;;;;;;5.14;96.83;102120.41;5033156;28;20478;-70
2022/10/12 00:09:36;;;;;;;12.93;6.37;;;;;;;5.18;96.79;102118.91;5032262;28;20463;-70
2022/10/12 00:12:03;;;;;;;12.33;6.17;;;;;;;5.17;97.33;102130.69;5032499;28;20462;-70
2022/10/12 00:14:30;;;;;;;9.80;4.87;;;;;;;5.26;96.99;102128.50;5032889;28;20956;-70
2022/10/12 00:16:57;;;;;;;9.03;5.23;;;;;;;5.20;96.35;102126.75;5032396;28;20487;-70
2022/10/12 00:19:23;;;;;;;13.43;5.67;;;;;;;5.25;95.71;102125.00;5031461;28;20497;-69
2022/10/12 00:21:49;;;;;;;17.00;6.03;;;;;;;5.26;96.33;102129.31;5034589;28;20493;-69
2022/10/12 00:24:16;;;;;;;8.80;4.73;;;;;;;5.30;94.63;102127.81;5037467;28;20457;-69
2022/10/12 00:26:42;;;;;;;8.00;5.00;;;;;;;5.07;92.69;102133.09;5036254;28;20499;-70
2022/10/12 00:29:10;;;;;;;11.40;4.90;;;;;;;4.87;93.35;102132.50;5035485;28;20446;-70
2022/10/12 00:31:37;;;;;;;10.47;4.47;;;;;;;4.85;94.07;102129.25;5037026;28;20447;-69
2022/10/12 00:34:04;;;;;;;9.67;4.30;;;;;;;4.76;92.80;102134.91;5034414;28;20834;-69
2022/10/12 00:36:32;;;;;;;9.20;4.87;;;;;;;4.74;94.28;102128.13;5017197;28;20459;-69
2022/10/12 00:38:59;;;;;;;10.70;4.17;;;;;;;4.83;93.96;102131.34;5037177;28;20538;-69
2022/10/12 00:41:28;;;;;;;9.37;4.77;;;;;;;4.77;93.22;102127.66;5035966;28;20497;-69
2022/10/12 00:43:55;;;;;;;8.10;4.67;;;;;;;4.78;94.86;102123.94;5036466;28;20497;-69
2022/10/12 00:46:35;;;;;;;14.77;5.17;;;;;;;4.71;96.43;102129.41;5021904;28;20491;-69
2022/10/12 00:49:08;;;;;;;11.20;5.20;;;;;;;4.73;97.13;102132.66;5017075;28;20491;-70
2022/10/12 00:51:35;;;;;;;12.37;5.40;;;;;;;4.66;98.48;102126.56;5031514;28;20463;-76
2022/10/12 00:54:05;;;;;;;8.80;4.40;;;;;;;4.73;97.82;102132.66;5035507;28;20983;-77
2022/10/12 00:56:35;;;;;;;13.07;5.00;;;;;;;4.81;97.68;102137.75;5036658;28;20463;-76
2022/10/12 00:59:06;;;;;;;11.67;4.60;;;;;;;4.86;97.24;102131.69;5035893;28;20463;-71
2022/10/12 01:01:35;;;;;;;9.47;4.60;;;;;;;4.77;97.50;102133.03;5034974;28;20463;-69
2022/10/12 01:04:02;;;;;;;9.00;3.97;;;;;;;4.69;97.93;102134.19;5035506;28;20470;-69
2022/10/12 01:06:30;;;;;;;10.97;4.70;;;;;;;4.69;98.22;102128.81;5036348;28;20487;-69
2022/10/12 01:08:56;;;;;;;11.53;4.67;;;;;;;4.60;98.54;102135.50;5035505;28;20463;-69
2022/10/12 01:11:23;;;;;;;17.80;5.10;;;;;;;4.67;97.86;102135.44;5034520;28;20490;-69
2022/10/12 01:13:49;;;;;;;16.07;5.47;;;;;;;4.67;97.94;102130.88;5036317;28;20820;-69
2022/10/12 01:16:22;;;;;;;10.60;3.93;;;;;;;4.65;96.55;102134.81;5035899;28;20883;-69
2022/10/12 01:18:57;;;;;;;8.90;3.77;;;;;;;4.75;94.43;102130.59;5035979;28;20959;-69
2022/10/12 01:21:24;;;;;;;11.23;4.80;;;;;;;4.67;94.04;102128.19;5034556;28;20517;-69
2022/10/12 01:24:26;;;;;;;7.30;3.73;;;;;;;4.61;93.42;102134.47;5036148;28;20447;-69
2022/10/12 01:27:24;;;;;;;13.50;4.40;;;;;;;4.56;93.10;102134.31;5032245;28;20490;-69
2022/10/12 01:30:10;;;;;;;8.50;4.03;;;;;;;4.50;93.18;102137.88;5036079;28;20426;-66
2022/10/12 01:32:51;;;;;;;12.23;4.77;;;;;;;4.45;92.94;102135.03;5034043;28;20455;-69
2022/10/12 01:35:25;;;;;;;10.87;4.07;;;;;;;4.37;93.77;102135.31;5035877;28;20474;-69
2022/10/12 01:38:03;;;;;;;21.90;4.30;;;;;;;4.44;94.22;102139.59;5033994;28;20467;-69
2022/10/12 01:40:36;;;;;;;8.80;4.43;;;;;;;4.55;95.12;102141.53;5035905;28;20431;-69
2022/10/12 01:43:02;;;;;;;9.13;4.40;;;;;;;4.54;96.04;102142.56;5033612;28;21114;-70
2022/10/12 01:45:30;;;;;;;8.73;4.23;;;;;;;4.53;96.42;102145.50;5035647;28;20491;-69
2022/10/12 01:47:57;;;;;;;9.23;4.10;;;;;;;4.47;97.19;102149.03;5019673;28;20491;-69
2022/10/12 01:50:30;;;;;;;8.73;4.60;;;;;;;4.43;97.12;102142.50;5019689;28;20470;-69
2022/10/12 01:53:03;;;;;;;11.80;4.83;;;;;;;4.47;96.83;102144.53;5033850;28;20466;-69
2022/10/12 01:55:39;;;;;;;10.93;4.70;;;;;;;4.46;96.89;102142.84;5030048;28;21000;-69
2022/10/12 01:58:25;;;;;;;10.10;4.57;;;;;;;4.52;96.53;102147.34;5015510;28;20876;-69
2022/10/12 02:01:02;;;;;;;7.10;4.00;;;;;;;4.53;96.27;102138.25;5022763;28;20451;-69
2022/10/12 02:03:36;;;;;;;14.50;4.80;;;;;;;4.57;96.37;102135.94;5033765;28;20500;-68
2022/10/12 02:06:08;;;;;;;7.10;3.93;;;;;;;4.58;96.01;102131.41;5035322;28;20902;-69
2022/10/12 02:08:40;;;;;;;8.00;4.27;;;;;;;4.58;96.00;102124.16;5034362;28;20960;-69
2022/10/12 02:11:09;;;;;;;11.37;4.47;;;;;;;4.66;95.93;102131.94;5035369;28;20424;-69
2022/10/12 02:13:38;;;;;;;9.90;4.43;;;;;;;4.55;94.00;102128.09;5033171;28;20459;-69
2022/10/12 02:16:09;;;;;;;7.43;3.50;;;;;;;4.43;94.41;102121.84;5034894;28;21026;-69
2022/10/12 02:18:42;;;;;;;7.23;3.53;;;;;;;4.35;95.71;102119.47;5034667;28;20459;-69
2022/10/12 02:21:11;;;;;;;10.40;3.90;;;;;;;4.37;96.18;102120.03;5035131;28;20419;-69
2022/10/12 02:23:38;;;;;;;8.63;4.03;;;;;;;4.39;95.80;102128.72;5033786;28;20485;-69
2022/10/12 02:26:06;;;;;;;9.43;4.27;;;;;;;4.44;94.34;102128.03;5034486;28;20996;-69
2022/10/12 02:28:35;;;;;;;8.23;4.60;;;;;;;4.27;94.64;102120.56;5034420;28;20467;-69
2022/10/12 02:31:09;;;;;;;7.40;3.60;;;;;;;4.23;94.26;102119.34;5034062;28;20989;-69
2022/10/12 02:33:39;;;;;;;10.70;4.30;;;;;;;4.15;93.49;102125.00;5016242;28;20518;-69
2022/10/12 02:36:12;;;;;;;10.07;3.87;;;;;;;4.22;93.15;102123.09;5014953;28;20518;-69
2022/10/12 02:38:43;;;;;;;7.93;3.90;;;;;;;4.18;93.08;102119.19;5015753;28;20433;-70
2022/10/12 02:41:14;;;;;;;9.07;4.10;;;;;;;4.14;93.10;102114.50;5034597;28;20431;-69
2022/10/12 02:43:44;;;;;;;8.83;4.03;;;;;;;4.09;93.82;102115.16;5033087;28;20432;-70
2022/10/12 02:46:13;;;;;;;10.17;3.87;;;;;;;4.04;95.19;102112.31;5033101;28;20490;-69
2022/10/12 02:48:41;;;;;;;10.50;4.27;;;;;;;3.98;94.40;102111.31;5033919;28;20435;-70
2022/10/12 02:51:09;;;;;;;9.30;4.13;;;;;;;4.00;94.52;102108.44;5034503;28;20447;-69
2022/10/12 02:53:36;;;;;;;14.50;3.80;;;;;;;4.01;95.68;102108.19;5033437;28;20820;-70
2022/10/12 02:56:05;;;;;;;11.73;4.47;;;;;;;4.03;96.71;102108.00;5032710;28;20502;-69
2022/10/12 02:58:31;;;;;;;7.30;3.27;;;;;;;4.03;97.07;102099.97;5033988;28;20443;-69
2022/10/12 03:00:58;;;;;;;8.57;4.07;;;;;;;4.11;96.77;102104.19;5014582;28;20451;-69
2022/10/12 03:03:26;;;;;;;15.67;4.03;;;;;;;4.04;97.37;102102.41;5014577;28;20824;-69
2022/10/12 03:05:52;;;;;;;7.87;3.80;;;;;;;4.04;97.34;102107.78;5033141;28;20495;-69
2022/10/12 03:08:19;;;;;;;7.73;3.90;;;;;;;4.07;97.03;102106.50;5032461;28;20471;-69
2022/10/12 03:10:45;;;;;;;8.37;4.07;;;;;;;4.08;97.22;102102.81;5034161;28;20486;-69
2022/10/12 03:13:12;;;;;;;9.87;4.83;;;;;;;4.06;97.33;102107.53;5017434;28;20467;-69
2022/10/12 03:15:38;;;;;;;7.93;3.57;;;;;;;3.98;97.24;102103.28;5021158;28;20479;-70
2022/10/12 03:18:05;;;;;;;17.80;4.37;;;;;;;4.06;97.45;102096.81;5032168;28;20463;-69
2022/10/12 03:20:33;;;;;;;9.97;3.97;;;;;;;4.19;95.17;102099.38;5033676;28;21007;-69
2022/10/12 03:22:59;;;;;;;8.80;4.40;;;;;;;4.05;93.36;102092.50;5033228;28;20463;-69
2022/10/12 03:25:26;;;;;;;7.83;3.83;;;;;;;3.99;93.16;102093.41;5033543;28;20502;-69
2022/10/12 03:27:52;;;;;;;9.83;3.97;;;;;;;3.99;93.06;102088.84;5052551;22;20485;-68
2022/10/12 03:30:18;;;;;;;11.80;4.20;;;;;;;3.83;93.15;102094.75;5072428;28;20461;-69
2022/10/12 03:32:45;;;;;;;6.90;3.17;;;;;;;3.82;92.55;102092.31;5073346;28;20465;-68
2022/10/12 03:35:13;;;;;;;8.80;3.93;;;;;;;3.74;92.51;102096.88;5073771;28;20449;-69
2022/10/12 03:37:40;;;;;;;8.90;3.93;;;;;;;3.70;94.15;102095.66;5073155;28;20503;-69
2022/10/12 03:40:08;;;;;;;11.27;4.37;;;;;;;3.72;94.58;102092.78;5072490;28;20457;-69
2022/10/12 03:42:35;;;;;;;8.40;3.77;;;;;;;3.68;96.54;102087.03;5073942;28;20862;-68
2022/10/12 03:45:01;;;;;;;10.10;3.87;;;;;;;3.66;97.70;102088.28;5072368;28;20460;-68
2022/10/12 03:47:28;;;;;;;8.30;4.00;;;;;;;3.67;98.07;102100.63;5073684;28;20488;-68
2022/10/12 03:49:54;;;;;;;7.70;4.00;;;;;;;3.80;97.89;102097.84;5072500;28;20485;-68
2022/10/12 03:52:20;;;;;;;9.33;3.40;;;;;;;3.84;97.39;102100.94;5073601;28;20487;-68
2022/10/12 03:54:48;;;;;;;9.50;4.40;;;;;;;3.88;97.30;102096.78;5072002;28;20510;-69
2022/10/12 03:57:15;;;;;;;9.03;3.80;;;;;;;3.91;97.18;102097.16;5072793;28;20441;-69
2022/10/12 03:59:41;;;;;;;7.90;3.73;;;;;;;4.01;96.53;102096.66;5072147;28;20530;-69
2022/10/12 04:02:07;;;;;;;8.47;3.87;;;;;;;3.98;96.37;102100.59;5073134;28;21004;-65
2022/10/12 04:04:34;;;;;;;7.00;3.83;;;;;;;3.96;96.78;102100.00;5072730;28;20519;-67
2022/10/12 04:07:00;;;;;;;9.17;3.57;;;;;;;4.05;95.20;102105.91;5073362;28;20487;-70
2022/10/12 04:09:27;;;;;;;9.03;4.20;;;;;;;3.92;95.31;102106.03;5072756;28;20481;-69
2022/10/12 04:11:54;;;;;;;6.53;3.23;;;;;;;3.93;96.01;102107.66;5072370;28;20472;-68
2022/10/12 04:14:21;;;;;;;12.30;4.90;;;;;;;3.83;96.79;102110.00;5073100;28;20453;-69
2022/10/12 04:16:47;;;;;;;10.60;4.50;;;;;;;3.83;94.67;102105.47;5073165;28;20495;-69
2022/10/12 04:19:14;;;;;;;10.90;3.70;;;;;;;3.74;93.94;102107.59;5072732;28;20538;-70
2022/10/12 04:21:41;;;;;;;16.43;4.30;;;;;;;3.69;93.15;102104.75;5066811;28;20466;-69
2022/10/12 04:24:08;;;;;;;9.30;3.83;;;;;;;3.60;92.60;102103.38;5053058;28;20450;-69
2022/10/12 04:26:34;;;;;;;9.07;3.20;;;;;;;3.60;93.14;102107.91;5071884;28;20484;-69
2022/10/12 04:29:02;;;;;;;7.83;3.80;;;;;;;3.45;92.61;102108.22;5073027;28;20474;-69
2022/10/12 04:31:29;;;;;;;7.83;4.00;;;;;;;3.40;94.28;102103.50;5071705;28;20462;-70
2022/10/12 04:33:56;;;;;;;13.60;4.77;;;;;;;3.36;94.37;102104.97;5073387;28;20532;-70
2022/10/12 04:36:22;;;;;;;7.27;3.20;;;;;;;3.41;95.02;102107.84;5073578;28;20533;-71
2022/10/12 04:38:49;;;;;;;13.13;4.50;;;;;;;3.35;97.17;102103.31;5072534;28;20531;-71
2022/10/12 04:41:15;;;;;;;8.17;3.50;;;;;;;3.46;97.47;102096.47;5073081;28;20433;-70
2022/10/12 04:43:42;;;;;;;8.27;3.90;;;;;;;3.45;97.35;102102.84;5071527;28;20954;-70
2022/10/12 04:46:10;;;;;;;11.60;4.13;;;;;;;3.41;97.27;102107.00;5072456;28;20590;-71
2022/10/12 04:48:36;;;;;;;7.93;3.60;;;;;;;3.47;97.49;102111.50;5072290;28;20481;-70
2022/10/12 04:51:04;;;;;;;17.00;3.67;;;;;;;3.52;97.08;102115.16;5072212;28;20469;-69
2022/10/12 04:53:31;;;;;;;8.17;3.97;;;;;;;3.69;96.00;102112.78;5071979;28;20457;-70
2022/10/12 04:55:57;;;;;;;10.07;4.63;;;;;;;3.67;95.64;102111.34;5072424;28;20465;-69
2022/10/12 04:58:23;;;;;;;7.13;3.50;;;;;;;3.81;95.25;102107.56;5072849;28;20453;-70
2022/10/12 05:00:50;;;;;;;10.90;4.13;;;;;;;3.78;94.75;102111.50;5071811;28;20463;-70
2022/10/12 05:03:18;;;;;;;7.50;3.90;;;;;;;3.70;95.65;102106.38;5071861;28;20457;-69
2022/10/12 05:05:44;;;;;;;8.03;3.53;;;;;;;3.62;96.39;102113.88;5072463;28;20953;-70
2022/10/12 05:08:11;;;;;;;9.00;3.30;;;;;;;3.67;96.37;102114.84;5074675;28;20572;-69
2022/10/12 05:10:38;;;;;;;9.17;3.83;;;;;;;3.75;94.60;102109.22;5076321;28;20445;-70
2022/10/12 05:13:04;;;;;;;11.73;2.90;;;;;;;3.55;94.25;102116.59;5075538;28;20457;-69
2022/10/12 05:15:31;;;;;;;6.20;3.20;;;;;;;3.42;94.83;102112.16;5076435;28;20495;-69
2022/10/12 05:17:57;;;;;;;9.60;3.90;;;;;;;3.42;95.48;102112.16;5075101;28;20578;-70
2022/10/12 05:20:25;;;;;;;6.90;3.30;;;;;;;3.45;93.92;102116.25;5076367;28;20437;-69
2022/10/12 05:22:51;;;;;;;8.70;2.87;;;;;;;3.40;91.86;102121.44;5075263;28;20461;-69
2022/10/12 05:25:18;;;;;;;9.33;4.00;;;;;;;3.28;92.37;102122.13;5074947;28;20830;-69
2022/10/12 05:27:45;;;;;;;8.30;3.83;;;;;;;3.22;91.79;102125.63;5074628;28;22610;-69
2022/10/12 05:30:12;;;;;;;9.50;3.80;;;;;;;3.16;93.15;102125.69;5076218;28;20441;-70
2022/10/12 05:32:38;;;;;;;6.97;3.90;;;;;;;3.14;92.96;102120.53;5073699;28;20448;-70
2022/10/12 05:35:05;;;;;;;7.17;3.60;;;;;;;3.10;93.26;102119.34;5067116;28;20818;-70
2022/10/12 05:37:34;;;;;;;8.27;3.40;;;;;;;3.15;94.92;102119.50;5075952;28;20487;-70
2022/10/12 05:40:01;;;;;;;6.80;3.43;;;;;;;3.14;96.67;102117.84;5075356;28;20946;-70
2022/10/12 05:42:27;;;;;;;11.70;3.93;;;;;;;3.20;96.89;102116.19;5075555;28;20457;-70
2022/10/12 05:44:53;;;;;;;7.63;3.80;;;;;;;3.40;96.12;102118.75;5074847;28;20519;-70
2022/10/12 05:47:20;;;;;;;9.00;3.60;;;;;;;3.47;95.72;102120.34;5075861;28;20488;-70
2022/10/12 05:49:46;;;;;;;8.73;3.53;;;;;;;3.46;96.38;102115.22;5074512;28;20485;-70
2022/10/12 05:52:13;;;;;;;7.73;3.27;;;;;;;3.47;96.67;102119.53;5075526;28;20437;-70
2022/10/12 05:54:41;;;;;;;8.60;3.33;;;;;;;3.42;97.09;102119.38;5072174;28;20457;-71
2022/10/12 05:57:07;;;;;;;9.07;3.60;;;;;;;3.44;97.40;102118.09;5058548;28;20453;-69
2022/10/12 05:59:34;;;;;;;7.33;2.80;;;;;;;3.39;97.72;102119.78;5074921;28;20481;-66
2022/10/12 06:02:00;;;;;;;7.80;3.33;;;;;;;3.39;98.18;102114.44;5075476;28;20449;-67
2022/10/12 06:04:26;;;;;;;5.80;3.00;;;;;;;3.37;98.68;102124.56;5074533;28;20464;-66
2022/10/12 06:06:53;;;;;;;16.23;3.00;;;;;;;3.38;96.79;102120.84;5075358;28;20488;-66
2022/10/12 06:09:19;;;;;;;8.90;3.60;;;;;;;3.40;95.58;102126.78;5073818;28;20526;-68
2022/10/12 06:11:47;;;;;;;6.77;3.57;;;;;;;3.41;95.77;102123.06;5074022;28;20882;-68
2022/10/12 06:14:14;;;;;;;6.87;3.00;;;;;;;3.33;96.43;102132.19;5075366;28;20444;-69
2022/10/12 06:16:40;;;;;;;6.43;3.33;;;;;;;3.40;96.14;102137.50;5073309;28;20464;-69
2022/10/12 06:19:09;;;;;;;13.23;3.60;;;;;;;3.41;95.29;102141.81;5072408;28;20861;-69
2022/10/12 06:21:36;;;;;;;7.90;3.83;;;;;;;3.45;94.64;102143.03;5075247;28;20506;-69
2022/10/12 06:24:02;;;;;;;9.27;4.23;;;;;;;3.51;95.94;102139.50;5073670;28;20984;-69
2022/10/12 06:26:29;;;;;;;15.87;3.90;;;;;;;3.51;98.26;102144.84;5075080;28;20475;-68
2022/10/12 06:28:59;;;;;;;10.10;3.77;;;;;;;3.61;99.17;102139.84;5073419;28;20497;-69
2022/10/12 06:31:25;;;;;;;7.70;3.17;;;;;;;3.80;98.04;102154.94;5075020;28;20476;-68
2022/10/12 06:33:52;;;;;;;8.97;3.90;;;;;;;3.87;95.95;102146.06;5073853;28;20453;-69
2022/10/12 06:36:19;;;;;;;8.50;3.30;;;;;;;3.88;96.58;102145.03;5074619;28;20826;-68
2022/10/12 06:38:45;;;;;;;6.83;3.47;;;;;;;3.90;97.58;102151.00;5073693;28;20982;-69
2022/10/12 06:41:12;;;;;;;10.30;3.80;;;;;;;3.94;98.12;102149.50;5074738;28;20441;-69
2022/10/12 06:43:38;;;;;;;7.33;3.40;;;;;;;4.04;97.57;102148.00;5072207;28;20890;-68
2022/10/12 06:46:07;;;;;;;10.50;4.33;;;;;;;4.09;97.56;102141.97;5073499;28;20469;-69
2022/10/12 06:48:33;;;;;;;10.10;3.90;;;;;;;4.10;99.79;102138.25;5074079;28;20511;-68
2022/10/12 06:51:00;;;;;;;9.03;3.70;;;;;;;4.20;100.00;102145.78;5073838;28;20457;-68
2022/10/12 06:53:27;;;;;;;12.50;4.00;;;;;;;4.32;100.00;102151.25;5073077;28;20461;-68
2022/10/12 06:55:54;;;;;;;8.97;4.00;;;;;;;4.40;100.00;102142.94;5073970;28;20871;-68
2022/10/12 06:58:20;;;;;;;7.40;3.77;;;;;;;4.53;100.00;102150.84;5073011;28;20480;-68
2022/10/12 07:00:47;;;;;;;7.80;3.63;;;;;;;4.71;100.00;102144.69;5072892;28;20441;-69
2022/10/12 07:03:15;;;;;;;9.97;4.20;;;;;;;4.85;100.00;102148.03;5074208;28;20453;-68
2022/10/12 07:05:42;;;;;;;8.80;3.80;;;;;;;4.91;100.00;102145.25;5073656;28;20460;-67
2022/10/12 07:08:08;;;;;;;8.27;3.57;;;;;;;5.06;100.00;102150.25;5073947;28;20500;-68
2022/10/12 07:10:34;;;;;;;7.63;3.80;;;;;;;5.23;100.00;102155.84;5073279;28;20457;-68
2022/10/12 07:13:01;;;;;;;7.23;3.80;;;;;;;5.34;100.00;102159.63;5072258;28;20461;-68
2022/10/12 07:15:27;;;;;;;19.73;4.30;;;;;;;5.46;100.00;102153.25;5074161;28;20480;-68
2022/10/12 07:17:54;;;;;;;11.37;5.33;;;;;;;5.60;100.00;102155.75;5072104;28;20477;-69
2022/10/12 07:20:21;;;;;;;11.60;5.27;;;;;;;5.82;100.00;102157.69;5073862;28;20495;-70
2022/10/12 07:22:48;;;;;;;14.57;6.10;;;;;;;6.04;100.00;102158.00;5073799;28;20437;-68
2022/10/12 07:25:14;;;;;;;10.57;5.33;;;;;;;6.19;100.00;102160.22;5073459;28;20499;-68
2022/10/12 07:27:40;;;;;;;14.00;5.60;;;;;;;6.38;100.00;102158.28;5073373;28;20481;-69
2022/10/12 07:30:09;;;;;;;16.40;5.97;;;;;;;6.52;100.00;102162.34;5073543;28;20507;-69
2022/10/12 07:32:35;;;;;;;10.67;5.73;;;;;;;6.65;100.00;102165.88;5073673;28;20486;-70
2022/10/12 07:35:02;;;;;;;14.03;5.23;;;;;;;6.77;100.00;102163.94;5073776;28;20450;-69
2022/10/12 07:37:29;;;;;;;18.10;6.63;;;;;;;6.93;100.00;102151.66;5073682;28;20510;-70
2022/10/12 07:39:56;;;;;;;18.10;6.00;;;;;;;7.13;100.00;102165.53;5073405;28;20935;-70
2022/10/12 07:42:23;;;;;;;12.40;5.43;;;;;;;7.30;100.00;102161.03;5073720;28;20476;-69
2022/10/12 07:44:49;;;;;;;25.70;5.07;;;;;;;7.53;100.00;102162.00;5073448;28;20441;-70
2022/10/12 07:47:16;;;;;;;13.07;5.83;;;;;;;7.69;100.00;102171.16;5073588;28;20510;-70
2022/10/12 07:49:43;;;;;;;16.90;5.27;;;;;;;7.84;100.00;102161.47;5073340;28;20465;-69
2022/10/12 07:52:09;;;;;;;12.50;6.00;;;;;;;8.00;100.00;102156.31;5073404;28;20458;-68
2022/10/12 07:54:37;;;;;;;9.20;4.60;;;;;;;8.13;100.00;102161.41;5073336;28;20870;-68
2022/10/12 07:57:03;;;;;;;16.10;5.37;;;;;;;8.30;100.00;102158.69;5072903;28;20452;-67
2022/10/12 07:59:30;;;;;;;10.50;4.53;;;;;;;8.46;100.00;102154.38;5073398;28;20464;-71
2022/10/12 08:01:56;;;;;;;11.53;4.03;;;;;;;8.57;100.00;102154.28;5073493;28;20452;-68
2022/10/12 08:04:22;;;;;;;12.20;5.30;;;;;;;8.73;100.00;102158.00;5072977;28;20450;-70
2022/10/12 08:06:49;;;;;;;13.23;4.60;;;;;;;8.87;100.00;102157.66;5073230;28;20495;-69
2022/10/12 08:09:15;;;;;;;17.20;5.37;;;;;;;9.00;100.00;102163.50;5072718;28;20998;-69
2022/10/12 08:11:43;;;;;;;11.70;4.50;;;;;;;9.15;100.00;102162.84;5073236;28;20494;-69
2022/10/12 08:14:13;;;;;;;10.90;4.30;;;;;;;9.39;100.00;102155.28;5073261;28;20511;-68
2022/10/12 08:16:39;;;;;;;10.73;4.10;;;;;;;9.70;100.00;102159.13;5073157;28;20462;-69
2022/10/12 08:19:06;;;;;;;8.97;3.60;;;;;;;9.91;100.00;102162.00;5072965;28;20515;-68
2022/10/12 08:21:32;;;;;;;22.07;4.33;;;;;;;10.01;97.71;102162.91;5073068;28;20449;-69
2022/10/12 08:23:59;;;;;;;16.43;4.07;;;;;;;10.07;96.61;102158.34;5073064;28;20445;-69
2022/10/12 08:26:26;;;;;;;7.97;3.93;;;;;;;10.17;95.77;102152.19;5072913;28;20446;-69
2022/10/12 08:28:53;;;;;;;12.80;4.17;;;;;;;10.38;94.25;102153.19;5072682;28;20497;-68
2022/10/12 08:31:20;;;;;;;7.40;3.40;;;;;;;10.54;93.97;102147.63;5073042;28;20445;-69
2022/10/12 08:33:46;;;;;;;11.37;4.20;;;;;;;10.66;92.57;102157.41;5073059;28;20495;-69
2022/10/12 08:36:13;;;;;;;9.73;2.93;;;;;;;10.77;91.88;102156.41;5072930;28;20445;-66
2022/10/12 08:38:42;;;;;;;8.83;3.00;;;;;;;10.84;91.33;102159.69;5073064;28;20507;-70
2022/10/12 08:41:21;;;;;;;7.80;3.13;;;;;;;10.92;91.15;102161.91;5073109;28;20539;-69
2022/10/12 08:44:04;;;;;;;8.50;3.10;;;;;;;10.96;91.22;102167.59;5076590;28;20425;-70
2022/10/12 08:46:31;;;;;;;5.73;2.30;;;;;;;11.05;91.01;102158.69;5077237;28;20418;-72
2022/10/12 08:49:04;;;;;;;7.03;2.53;;;;;;;11.13;90.00;102162.00;5076915;28;20554;-70
2022/10/12 08:51:33;;;;;;;8.30;2.00;;;;;;;11.24;89.69;102153.59;5076921;28;20440;-68
2022/10/12 08:54:03;;;;;;;6.60;1.93;;;;;;;11.36;89.18;102159.63;5076751;28;20499;-68
2022/10/12 08:56:29;;;;;;;6.77;2.27;;;;;;;11.58;85.22;102156.69;5076381;28;20908;-68
2022/10/12 08:58:57;;;;;;;12.23;2.17;;;;;;;11.78;83.83;102158.63;5076593;28;20465;-69
2022/10/12 09:01:32;;;;;;;6.17;2.10;;;;;;;11.85;84.48;102167.31;5076508;28;20456;-68
2022/10/12 09:04:10;;;;;;;6.43;2.53;;;;;;;11.95;83.83;102157.56;5076247;28;20929;-67
2022/10/12 09:06:41;;;;;;;7.33;2.43;;;;;;;12.13;81.94;102148.88;5076755;28;20876;-68
2022/10/12 09:09:27;;;;;;;9.43;1.50;;;;;;;12.33;79.87;102146.13;5075853;28;20867;-68
2022/10/12 09:12:08;;;;;;;7.20;1.63;;;;;;;12.37;81.15;102149.91;5076021;28;20433;-68
2022/10/12 09:14:38;;;;;;;9.40;2.17;;;;;;;12.44;78.56;102148.81;5076436;28;20429;-68
2022/10/12 09:17:20;;;;;;;5.80;1.63;;;;;;;12.57;77.54;102145.53;5076437;28;20434;-68
2022/10/12 09:19:48;;;;;;;6.80;1.23;;;;;;;12.73;77.59;102152.56;5077325;28;20468;-68
2022/10/12 09:22:20;;;;;;;8.33;2.13;;;;;;;12.70;79.17;102147.66;5076289;28;20441;-68
2022/10/12 09:24:49;;;;;;;6.93;1.20;;;;;;;12.74;79.17;102139.78;5075972;28;20421;-68
2022/10/12 09:27:17;;;;;;;8.73;2.00;;;;;;;12.77;79.65;102140.03;5075861;28;20452;-69
2022/10/12 09:29:49;;;;;;;9.80;1.87;;;;;;;12.79;79.74;102143.31;5086929;22;21002;-69
2022/10/12 09:32:36;;;;;;;4.60;1.77;;;;;;;12.96;77.54;102144.84;5055744;28;20430;-71
2022/10/12 09:35:04;;;;;;;7.53;1.80;;;;;;;13.09;75.90;102146.97;5055638;28;20936;-70
2022/10/12 09:37:32;;;;;;;7.30;1.10;;;;;;;13.20;75.55;102136.88;5055574;28;20850;-70
2022/10/12 09:39:59;;;;;;;6.70;1.63;;;;;;;13.22;75.37;102140.94;5055601;28;20461;-69
2022/10/12 09:42:26;;;;;;;6.43;1.23;;;;;;;13.21;75.13;102138.50;5055890;28;20442;-69
2022/10/12 09:45:00;;;;;;;12.03;1.80;;;;;;;13.19;75.08;102144.19;5055915;28;20442;-69
2022/10/12 09:47:28;;;;;;;10.67;1.87;;;;;;;13.33;73.82;102134.38;5055770;28;20426;-69
2022/10/12 09:49:57;;;;;;;4.07;1.53;;;;;;;13.51;74.42;102123.91;5055452;28;20538;-68
2022/10/12 09:52:28;;;;;;;5.00;1.20;;;;;;;13.67;71.27;102133.59;5055858;28;20447;-68
2022/10/12 09:54:57;;;;;;;10.67;2.00;;;;;;;13.73;71.54;102129.75;5054224;28;20444;-69
2022/10/12 09:57:26;;;;;;;8.23;1.80;;;;;;;13.80;72.02;102124.78;5055510;28;20442;-69
2022/10/12 09:59:54;;;;;;;4.40;1.27;;;;;;;13.83;73.16;102131.56;5055396;28;20459;-67
2022/10/12 10:02:22;;;;;;;6.93;1.93;;;;;;;13.84;72.48;102125.81;5055120;28;20427;-68
2022/10/12 10:04:51;;;;;;;4.70;1.17;;;;;;;13.94;72.54;102135.00;5055343;28;20447;-68
2022/10/12 10:07:27;;;;;;;6.13;1.97;;;;;;;14.05;71.05;102137.38;5054954;28;20454;-69
2022/10/12 10:10:15;;;;;;;15.00;1.60;;;;;;;14.06;71.65;102124.56;5055343;28;20513;-71
2022/10/12 10:12:48;;;;;;;6.43;1.60;;;;;;;14.21;70.63;102124.44;5055351;28;20423;-73
2022/10/12 10:15:23;;;;;;;4.40;1.10;;;;;;;14.34;69.11;102123.75;5055199;28;20481;-74
2022/10/12 10:17:52;;;;;;;3.70;1.10;;;;;;;14.52;67.88;102126.84;5055183;28;20430;-73
2022/10/12 10:20:33;;;;;;;6.20;1.20;;;;;;;14.52;68.91;102119.50;5054811;28;20462;-74
2022/10/12 10:23:03;;;;;;;5.57;0.97;;;;;;;14.56;69.29;102127.88;5055043;28;20438;-75
2022/10/12 10:25:29;;;;;;;5.13;1.10;;;;;;;14.64;66.49;102121.81;5054989;28;20453;-74
2022/10/12 10:28:21;;;;;;;11.60;1.77;;;;;;;14.73;65.41;102117.34;5054873;28;20445;-74
2022/10/12 10:30:58;;;;;;;8.13;1.20;;;;;;;14.87;66.14;102118.28;5054968;28;20767;-74
2022/10/12 10:33:25;;;;;;;6.77;1.13;;;;;;;15.08;65.52;102124.25;5055044;28;20445;-74
2022/10/12 10:36:00;;;;;;;6.90;1.30;;;;;;;15.23;64.86;102125.13;5054720;28;20442;-74
2022/10/12 10:38:27;;;;;;;3.30;1.03;;;;;;;15.37;64.72;102124.13;5054793;28;20462;-72
2022/10/12 10:40:56;;;;;;;4.57;1.17;;;;;;;15.42;64.84;102125.97;5054676;28;20442;-72
2022/10/12 10:43:27;;;;;;;4.73;1.00;;;;;;;15.56;61.00;102124.13;5054615;28;20434;-73
2022/10/12 10:45:58;;;;;;;6.70;1.37;;;;;;;15.69;59.92;102130.78;5054176;28;20930;-74
2022/10/12 10:48:28;;;;;;;3.53;0.93;;;;;;;15.87;60.65;102129.94;5054330;28;20836;-73
2022/10/12 10:50:59;;;;;;;4.23;1.47;;;;;;;15.95;58.40;102122.16;5054198;28;20438;-72
2022/10/12 10:53:30;;;;;;;6.20;1.10;;;;;;;16.02;60.44;102111.66;5054812;28;20430;-71
2022/10/12 10:56:03;;;;;;;4.27;1.13;;;;;;;16.22;60.88;102114.03;5054527;28;20431;-73
2022/10/12 10:58:34;;;;;;;5.40;1.37;;;;;;;16.26;57.10;102111.50;5054494;28;20458;-72
2022/10/12 11:01:12;;;;;;;4.57;0.90;;;;;;;16.48;58.30;102111.63;5054535;28;20430;-73
2022/10/12 11:03:48;;;;;;;9.07;1.00;;;;;;;16.93;55.82;102105.56;5054062;28;20426;-73
2022/10/12 11:06:23;;;;;;;8.30;1.33;;;;;;;17.75;55.09;102105.31;5053748;28;21026;-73
2022/10/12 11:08:55;;;;;;;3.57;0.80;;;;;;;19.01;52.84;102109.56;5054572;28;20496;-71
2022/10/12 11:11:26;;;;;;;3.40;0.90;;;;;;;19.63;47.95;102114.78;5054373;28;20445;-73
2022/10/12 11:13:57;;;;;;;4.33;0.90;;;;;;;20.65;48.44;102103.81;5053892;28;20934;-73
2022/10/12 11:16:33;;;;;;;5.73;0.90;;;;;;;21.73;43.92;102111.44;5054168;28;20435;-73
2022/10/12 11:19:02;;;;;;;3.60;0.90;;;;;;;22.80;42.89;102108.72;5053974;28;20468;-73
2022/10/12 11:21:32;;;;;;;5.57;1.30;;;;;;;23.53;41.32;102111.31;5053705;28;20445;-74
2022/10/12 11:24:05;;;;;;;3.00;0.50;;;;;;;24.28;40.54;102109.78;5053928;28;20450;-74
2022/10/12 11:26:36;;;;;;;5.63;1.10;;;;;;;24.50;37.54;102105.59;5053892;28;20430;-73
2022/10/12 11:29:03;;;;;;;3.93;0.90;;;;;;;24.25;38.10;102108.50;5053510;28;20504;-73
2022/10/12 11:31:36;;;;;;;4.03;0.80;;;;;;;24.40;38.71;102098.63;5054114;28;20446;-73
2022/10/12 11:34:08;;;;;;;6.07;1.07;;;;;;;24.77;37.88;102101.88;5054106;28;20431;-73
2022/10/12 11:36:38;;;;;;;3.20;0.70;;;;;;;24.64;38.28;102101.19;5053461;28;20803;-73